Terminal Aerodrome Forecast
Issued by NWS

Home | Current Version | Previous Version | Text Only | Print | Product List | Glossary On
Versions: 1 2 3 4 5 6 7 8 9 10 11 12
000
FTUS45 KTWC 181100
TAFOLS
TAF
KOLS 181126Z 1812/1912 11003KT P6SM FEW150 OVC250
     FM181800 19018G27KT P6SM SCT100 OVC250
     FM190300 18010KT P6SM BKN090 BKN200
     FM190600 16005KT P6SM BKN070 BKN200=

USA.gov is the U.S. government's official web portal to all federal, state and local government web resources and services.